Ressurser
NettlenkerNedenfor følger en lenkesamling med ulike ressurser som er nyttige både for nåværende og kommende piloter.
Antall som skal vises: 
Nr. Nettlenke Treff
1   Link   Airplane Flying Handbook
Bok i PDF versjon som gir en innføring i flyging. Utgitt av FAA.
3050
2   Link   VOR, NDB, HSI og RMI simulator
Side med utallige flash-baserte simulatorer.
3737
3   Link   Pilot's Handbook of Aeronautical Knowledge
FAA lærebok om fly-relaterte temaer.
2477
4   Link   AOPA Air Safety Foundation
Gratis flash-baserte pilot kurs fra AOPA.
2410
5   Link   Pilot Friend
Side med mange nyttige ressurser: vær, flytyper, motortyper, flyplanlegging, flymedisin m.m.
2726
6   Link   Bernoullis prinsipp
Side med animert og fyldig informasjon om Bernoullis prinsipp
2749
7   Link   Seaplane, Skiplane, and Float/Ski Equipped Helicopter Operations Handbook
FAA bok som omhandler ski og sjøflyging.
2394
 
METAR
2018/08/20 18:50 ENCN 201850Z 33006KT 290V030 CAVOK 17/04 Q1015
TAF
2018/08/20 18:39 TAF ENCN 201700Z 2018/2021 32012KT CAVOK
LN-KFK
< 10 timer til service
VFR dag
05:14 - 21:46
Brannvakt
Inaktiv
Banner
Banner
Banner
Banner
Banner